Time;durP1;ratioP1;P1;durP2;ratioP2;P2;SDS_P1;SDS_P2;PMS_P1;PMS_P2;Temp;Humidity;BMP_temperature;BMP_pressure;BME280_temperature;BME280_humidity;BME280_pressure;Samples;Min_cycle;Max_cycle;Signal;HPM_P1;HPM_P2
2022/12/14 00:01:14;;;;;;;45.83;14.85;;;-2.70;99.90;;;;;;4997747;28;20035;-96
2022/12/14 00:03:40;;;;;;;49.60;16.42;;;-2.70;99.90;;;;;;4998278;28;20038;-95
2022/12/14 00:06:17;;;;;;;51.13;15.88;;;-2.70;99.90;;;;;;4983950;28;20042;-96
2022/12/14 00:08:48;;;;;;;55.40;16.52;;;-2.80;99.90;;;;;;4983320;28;20081;-95
2022/12/14 00:11:14;;;;;;;37.53;13.98;;;-2.80;99.90;;;;;;5000856;28;20034;-95
2022/12/14 00:13:40;;;;;;;42.00;14.88;;;-2.90;99.90;;;;;;5001244;28;20094;-94
2022/12/14 00:16:08;;;;;;;50.90;15.52;;;-3.00;99.90;;;;;;5014841;28;20095;-91
2022/12/14 00:18:34;;;;;;;53.47;15.82;;;-3.00;99.90;;;;;;5018847;28;20027;-93
2022/12/14 00:21:09;;;;;;;53.75;16.67;;;-3.00;99.90;;;;;;5004561;28;20102;-94
2022/12/14 00:23:35;;;;;;;50.20;17.70;;;-3.10;99.90;;;;;;4981297;28;20035;-93
2022/12/14 00:26:19;;;;;;;47.10;15.60;;;-3.10;99.90;;;;;;4999318;28;20134;-95
2022/12/14 00:28:48;;;;;;;53.88;16.23;;;-3.20;99.90;;;;;;5002360;28;20030;-95
2022/12/14 00:31:14;;;;;;;55.10;16.17;;;-3.20;99.90;;;;;;5000875;28;20027;-95
2022/12/14 00:33:40;;;;;;;56.97;17.30;;;-3.20;99.90;;;;;;5003060;28;20026;-96
2022/12/14 00:36:08;;;;;;;52.67;17.90;;;-3.20;99.90;;;;;;4998547;28;20053;-95
2022/12/14 00:38:34;;;;;;;61.53;17.23;;;-3.30;99.90;;;;;;5000737;28;20113;-94
2022/12/14 00:41:00;;;;;;;51.05;16.85;;;-3.30;99.90;;;;;;5005318;28;20035;-95
2022/12/14 00:43:27;;;;;;;46.22;14.82;;;-3.40;99.90;;;;;;5007668;28;20053;-95
2022/12/14 00:45:53;;;;;;;58.25;18.38;;;-3.40;99.90;;;;;;5005411;28;20037;-94
2022/12/14 00:48:20;;;;;;;55.20;17.10;;;-3.40;99.90;;;;;;5005470;28;20035;-95
2022/12/14 00:50:47;;;;;;;51.85;17.23;;;-3.30;99.90;;;;;;5005563;28;20022;-95
2022/12/14 00:53:13;;;;;;;61.97;20.38;;;-3.40;99.90;;;;;;5000331;28;20023;-95
2022/12/14 00:55:40;;;;;;;60.63;19.38;;;-3.40;99.90;;;;;;4982264;28;20041;-94
2022/12/14 00:58:07;;;;;;;63.75;19.25;;;-3.40;99.90;;;;;;4998046;28;20034;-92
2022/12/14 01:00:33;;;;;;;53.05;18.77;;;-3.50;99.90;;;;;;4996988;28;20161;-95
2022/12/14 01:02:58;;;;;;;50.95;15.70;;;-3.50;99.90;;;;;;4998022;28;20095;-94
2022/12/14 01:05:24;;;;;;;52.55;16.45;;;-3.40;99.90;;;;;;5001226;28;20030;-95
2022/12/14 01:07:50;;;;;;;61.83;17.38;;;-3.40;99.90;;;;;;5004724;28;20046;-94
2022/12/14 01:10:16;;;;;;;52.55;17.38;;;-3.30;99.90;;;;;;5003648;28;20049;-94
2022/12/14 01:12:42;;;;;;;54.08;17.77;;;-3.30;99.90;;;;;;5001636;28;20087;-95
2022/12/14 01:15:08;;;;;;;54.15;17.15;;;-3.30;99.90;;;;;;4985236;28;20046;-94
2022/12/14 01:17:33;;;;;;;53.10;15.98;;;-3.40;99.90;;;;;;4999222;28;20105;-95
2022/12/14 01:19:59;;;;;;;50.00;17.85;;;-3.40;99.90;;;;;;4996868;28;20030;-95
2022/12/14 01:22:25;;;;;;;48.95;15.25;;;-3.40;99.90;;;;;;4997267;28;20037;-95
2022/12/14 01:24:50;;;;;;;47.65;14.77;;;-3.40;99.90;;;;;;4996388;28;20109;-94
2022/12/14 01:27:16;;;;;;;54.78;16.58;;;-3.50;99.90;;;;;;4997379;28;20482;-95
2022/12/14 01:29:42;;;;;;;47.13;15.20;;;-3.50;99.90;;;;;;4996361;28;20030;-95
2022/12/14 01:32:07;;;;;;;45.67;15.15;;;-3.50;99.90;;;;;;4995775;28;20030;-93
2022/12/14 01:34:33;;;;;;;60.15;18.50;;;-3.60;99.90;;;;;;4995990;28;20039;-95
2022/12/14 01:36:59;;;;;;;54.22;17.67;;;-3.60;99.90;;;;;;4997184;28;20181;-95
2022/12/14 01:39:24;;;;;;;49.15;16.38;;;-3.60;99.90;;;;;;4996698;28;20026;-95
2022/12/14 01:41:53;;;;;;;57.58;17.80;;;-3.60;99.90;;;;;;4996218;28;20635;-94
2022/12/14 01:44:21;;;;;;;50.47;16.00;;;-3.60;99.90;;;;;;4995962;28;20045;-95
2022/12/14 01:46:50;;;;;;;50.15;17.17;;;-3.70;99.90;;;;;;4997922;28;20044;-96
2022/12/14 01:49:31;;;;;;;57.35;17.80;;;-3.70;99.90;;;;;;5001822;28;20094;-96
2022/12/14 01:52:03;;;;;;;;;;;-3.70;99.90;;;;;;4999390;28;20487;-95
2022/12/14 01:54:33;;;;;;;47.20;16.23;;;-3.80;99.90;;;;;;4998293;28;19924;-96
2022/12/14 01:56:59;;;;;;;54.85;17.27;;;-3.80;99.90;;;;;;4998630;28;20030;-96
2022/12/14 01:59:32;;;;;;;55.58;17.65;;;-3.80;99.90;;;;;;4998678;28;20088;-96
2022/12/14 02:02:01;;;;;;;54.28;17.05;;;-3.80;99.90;;;;;;4999493;28;20076;-96
2022/12/14 02:04:31;;;;;;;52.03;15.88;;;-3.80;99.90;;;;;;5013443;28;20026;-85
2022/12/14 02:06:56;;;;;;;48.75;15.45;;;-3.90;99.90;;;;;;5016863;28;20096;-96
2022/12/14 02:09:29;;;;;;;49.00;15.98;;;-3.90;99.90;;;;;;5002783;28;20030;-96
2022/12/14 02:12:02;;;;;;;54.38;17.40;;;-3.90;99.90;;;;;;5007647;28;20063;-96
2022/12/14 02:14:28;;;;;;;49.80;14.98;;;-3.90;99.90;;;;;;5008834;28;20026;-95
2022/12/14 02:16:56;;;;;;;49.65;15.88;;;-3.90;99.90;;;;;;5009391;28;20041;-94
2022/12/14 02:19:22;;;;;;;51.72;15.75;;;-4.00;99.90;;;;;;5015694;28;20065;-95
2022/12/14 02:21:59;;;;;;;49.90;15.70;;;-4.00;99.90;;;;;;5009583;28;20019;-95
2022/12/14 02:24:44;;;;;;;48.75;15.35;;;-4.00;99.90;;;;;;5009086;28;20070;-96
2022/12/14 02:27:41;;;;;;;47.72;14.98;;;-4.00;99.90;;;;;;5007049;28;20066;-95
2022/12/14 02:30:16;;;;;;;51.13;16.63;;;-4.10;99.90;;;;;;5003498;28;20084;-94
2022/12/14 02:33:19;;;;;;;43.72;13.82;;;-4.10;99.90;;;;;;5003786;28;20460;-95
2022/12/14 02:36:19;;;;;;;42.28;14.80;;;-4.20;99.90;;;;;;4996412;28;20061;-94
2022/12/14 02:39:00;;;;;;;42.67;13.43;;;-4.20;99.90;;;;;;4992413;28;20088;-95
2022/12/14 02:41:37;;;;;;;40.88;14.60;;;-4.20;99.90;;;;;;5002134;28;20026;-95
2022/12/14 02:44:24;;;;;;;44.50;14.82;;;-4.20;99.90;;;;;;5006711;28;20078;-95
2022/12/14 02:46:55;;;;;;;47.72;14.50;;;-4.20;99.90;;;;;;5003469;28;20019;-95
2022/12/14 02:49:48;;;;;;;41.72;12.68;;;-4.20;99.90;;;;;;4996912;28;20034;-94
2022/12/14 02:52:52;;;;;;;37.83;13.25;;;-4.20;99.90;;;;;;4992832;28;20049;-95
2022/12/14 02:55:48;;;;;;;42.72;13.32;;;-4.30;99.90;;;;;;4994908;28;20098;-94
2022/12/14 02:58:19;;;;;;;40.22;12.98;;;-4.40;99.90;;;;;;4992703;28;20069;-94
2022/12/14 03:00:46;;;;;;;41.50;13.32;;;-4.40;99.90;;;;;;4993922;28;20038;-93
2022/12/14 03:03:12;;;;;;;46.50;13.38;;;-4.50;99.90;;;;;;4995139;28;20030;-94
2022/12/14 03:05:38;;;;;;;43.25;13.50;;;-4.50;99.90;;;;;;5000894;28;20035;-94
2022/12/14 03:08:11;;;;;;;43.45;13.65;;;-4.60;99.90;;;;;;5005199;28;20030;-95
2022/12/14 03:10:40;;;;;;;40.88;12.52;;;-4.60;99.90;;;;;;5006956;28;20057;-93
2022/12/14 03:13:15;;;;;;;40.47;12.48;;;-4.70;99.90;;;;;;5012562;28;20086;-93
2022/12/14 03:15:44;;;;;;;35.75;11.45;;;-4.70;99.90;;;;;;5009717;28;20045;-93
2022/12/14 03:18:16;;;;;;;36.08;11.98;;;-4.70;99.90;;;;;;5011968;28;20058;-94
2022/12/14 03:20:44;;;;;;;39.95;12.25;;;-4.80;99.90;;;;;;5003348;28;20034;-95
2022/12/14 03:23:14;;;;;;;37.28;11.48;;;-4.80;99.90;;;;;;4994259;28;20088;-93
2022/12/14 03:25:46;;;;;;;39.25;10.80;;;-4.90;99.90;;;;;;4993615;28;20464;-94
2022/12/14 03:28:11;;;;;;;36.67;12.00;;;-4.90;99.90;;;;;;4993655;28;20097;-96
2022/12/14 03:30:42;;;;;;;34.92;10.32;;;-4.90;99.90;;;;;;4993826;28;20034;-95
2022/12/14 03:33:15;;;;;;;29.98;10.23;;;-4.90;99.90;;;;;;4977506;28;20122;-93
2022/12/14 03:36:10;;;;;;;37.15;11.23;;;-5.00;99.90;;;;;;4995084;28;20100;-95
2022/12/14 03:38:48;;;;;;;31.30;10.40;;;-4.90;99.90;;;;;;4993013;28;20056;-94
2022/12/14 03:41:38;;;;;;;30.90;9.70;;;-5.00;99.90;;;;;;4997705;28;20033;-96
2022/12/14 03:44:28;;;;;;;26.92;9.85;;;-5.00;99.90;;;;;;4999562;28;20030;-95
2022/12/14 03:47:20;;;;;;;38.55;11.73;;;-5.10;99.90;;;;;;5008845;28;20071;-93
2022/12/14 03:50:01;;;;;;;40.25;10.77;;;-5.10;99.90;;;;;;5015266;28;20027;-93
2022/12/14 03:52:50;;;;;;;38.63;11.30;;;-5.20;99.90;;;;;;5009577;28;20042;-95
2022/12/14 03:55:43;;;;;;;28.98;10.27;;;-5.20;99.90;;;;;;4995297;28;20064;-95
2022/12/14 03:58:42;;;;;;;31.77;10.35;;;-5.20;99.90;;;;;;4995122;28;20085;-95
2022/12/14 04:01:21;;;;;;;34.25;10.60;;;-5.20;99.90;;;;;;4994495;28;20023;-95
2022/12/14 04:03:51;;;;;;;33.17;10.20;;;-5.30;99.90;;;;;;4994791;28;20029;-94
2022/12/14 04:06:44;;;;;;;36.40;9.18;;;-5.20;99.90;;;;;;4995157;28;20030;-94
2022/12/14 04:09:19;;;;;;;28.80;9.05;;;-5.20;99.90;;;;;;4998095;28;20026;-95
2022/12/14 04:20:54;;;;;;;41.22;12.40;;;-5.40;99.90;;;;;;4997936;28;20076;-94
2022/12/14 04:26:15;;;;;;;40.38;11.85;;;-5.40;99.90;;;;;;4998736;28;20141;-93
2022/12/14 04:31:36;;;;;;;37.30;11.73;;;-5.50;99.90;;;;;;4998876;28;20026;-93
2022/12/14 04:34:04;;;;;;;30.58;10.07;;;-5.50;99.90;;;;;;4996873;28;20030;-95
2022/12/14 04:36:50;;;;;;;29.75;10.02;;;-5.60;99.90;;;;;;4997096;28;20121;-95
2022/12/14 04:39:34;;;;;;;31.40;10.18;;;-5.50;99.90;;;;;;5001095;28;20030;-95
2022/12/14 04:42:04;;;;;;;31.17;10.25;;;-5.60;99.90;;;;;;5002490;28;20030;-96
2022/12/14 04:44:37;;;;;;;29.80;9.95;;;-5.50;99.90;;;;;;5001828;28;20036;-96
2022/12/14 04:47:08;;;;;;;35.80;12.27;;;-5.50;99.90;;;;;;5001706;28;20030;-96
2022/12/14 04:50:00;;;;;;;35.13;11.00;;;-5.40;99.90;;;;;;4998143;28;20058;-96
2022/12/14 04:52:45;;;;;;;35.90;11.02;;;-5.40;99.90;;;;;;4997469;28;20030;-96
2022/12/14 04:55:30;;;;;;;32.88;11.35;;;-5.30;99.90;;;;;;4998393;28;20078;-96
2022/12/14 04:58:01;;;;;;;29.38;9.68;;;-5.30;99.90;;;;;;4998885;28;20030;-94
2022/12/14 05:00:31;;;;;;;32.25;10.52;;;-5.20;99.90;;;;;;4996652;28;20121;-94
2022/12/14 05:03:15;;;;;;;36.37;10.70;;;-5.20;99.90;;;;;;4996481;28;20022;-94
2022/12/14 05:05:46;;;;;;;30.88;11.43;;;-5.10;99.90;;;;;;4995727;28;20030;-93
2022/12/14 05:08:49;;;;;;;29.05;9.73;;;-5.10;99.90;;;;;;4995823;28;20068;-95
2022/12/14 05:11:36;;;;;;;24.60;8.52;;;-5.10;99.90;;;;;;4995848;28;20116;-95
2022/12/14 05:14:07;;;;;;;28.05;9.05;;;-5.00;99.90;;;;;;5002899;28;20027;-95
2022/12/14 05:16:35;;;;;;;32.17;10.75;;;-5.00;99.90;;;;;;4999491;28;20038;-95
2022/12/14 05:19:01;;;;;;;45.85;12.93;;;-5.00;99.90;;;;;;4998513;28;20026;-96
2022/12/14 05:21:46;;;;;;;28.88;10.70;;;-5.00;99.90;;;;;;5005341;28;20038;-96
2022/12/14 05:24:11;;;;;;;36.67;11.73;;;-5.00;99.90;;;;;;4998862;28;20041;-96
2022/12/14 05:26:38;;;;;;;41.20;12.98;;;-5.00;99.90;;;;;;4997250;28;20042;-93
2022/12/14 05:29:04;;;;;;;37.63;11.45;;;-5.00;99.90;;;;;;4996680;28;20038;-96
2022/12/14 05:31:30;;;;;;;34.80;10.63;;;-5.00;99.90;;;;;;4996541;28;20023;-95
2022/12/14 05:33:56;;;;;;;43.55;12.50;;;-5.00;99.90;;;;;;4996599;28;20034;-94
2022/12/14 05:36:21;;;;;;;39.28;11.50;;;-5.00;99.90;;;;;;4996265;28;20078;-93
2022/12/14 05:38:47;;;;;;;37.88;11.85;;;-5.00;99.90;;;;;;4995286;28;20050;-95
2022/12/14 05:41:13;;;;;;;41.67;13.07;;;-5.00;99.90;;;;;;4995733;28;20035;-94
2022/12/14 05:43:39;;;;;;;47.08;12.38;;;-5.00;99.90;;;;;;4996026;28;20034;-95
2022/12/14 05:46:06;;;;;;;41.85;12.68;;;-5.00;99.90;;;;;;4996242;28;20464;-95
2022/12/14 05:48:32;;;;;;;30.60;10.77;;;-5.00;99.90;;;;;;4998624;28;20053;-96
2022/12/14 05:51:24;;;;;;;32.78;10.13;;;-5.00;99.90;;;;;;4997643;28;20034;-95
2022/12/14 05:53:50;;;;;;;40.55;10.65;;;-5.00;99.90;;;;;;4995852;28;20035;-95
2022/12/14 05:56:16;;;;;;;29.88;9.77;;;-5.00;99.90;;;;;;4999288;28;20045;-95
2022/12/14 05:58:42;;;;;;;30.20;10.35;;;-5.00;99.90;;;;;;4997587;28;20038;-95
2022/12/14 06:01:10;;;;;;;27.23;9.10;;;-5.00;99.90;;;;;;4996561;28;20038;-95
2022/12/14 06:03:36;;;;;;;34.50;10.35;;;-5.00;99.90;;;;;;4996314;28;20036;-94
2022/12/14 06:06:10;;;;;;;42.95;11.23;;;-5.00;99.90;;;;;;4996895;28;20061;-95
2022/12/14 06:08:44;;;;;;;36.15;10.48;;;-5.00;99.90;;;;;;4997062;28;20061;-94
2022/12/14 06:11:16;;;;;;;31.92;9.35;;;-5.00;99.90;;;;;;4996248;28;20129;-95
2022/12/14 06:13:42;;;;;;;17.20;6.25;;;-5.00;99.90;;;;;;4995814;28;20127;-95
2022/12/14 06:16:21;;;;;;;21.88;7.45;;;-5.00;99.90;;;;;;4996733;28;20557;-95
2022/12/14 06:18:49;;;;;;;25.85;8.98;;;-4.80;99.90;;;;;;4996424;28;20031;-96
2022/12/14 06:21:16;;;;;;;33.30;10.43;;;-4.70;99.90;;;;;;4997409;28;20030;-96
2022/12/14 06:23:43;;;;;;;35.45;10.23;;;-4.70;99.90;;;;;;4995749;28;20026;-96
2022/12/14 06:26:09;;;;;;;29.23;9.73;;;-4.70;99.90;;;;;;4996268;28;20492;-96
2022/12/14 06:28:36;;;;;;;25.13;9.02;;;-4.70;99.90;;;;;;5002290;28;20061;-96
2022/12/14 06:31:02;;;;;;;27.45;10.15;;;-4.70;99.90;;;;;;5003166;28;20034;-95
2022/12/14 06:33:28;;;;;;;35.50;10.82;;;-4.60;99.90;;;;;;5002519;28;20034;-95
2022/12/14 06:35:55;;;;;;;25.20;8.48;;;-4.60;99.90;;;;;;5003919;28;20046;-96
2022/12/14 06:38:21;;;;;;;27.38;8.93;;;-4.50;99.90;;;;;;5004489;28;20026;-92
2022/12/14 06:40:47;;;;;;;23.85;7.57;;;-4.50;99.90;;;;;;5011428;28;20173;-93
2022/12/14 06:43:13;;;;;;;23.80;7.78;;;-4.40;99.90;;;;;;4996263;28;20062;-93
2022/12/14 06:45:38;;;;;;;9.88;3.40;;;-4.30;99.90;;;;;;4998037;28;20045;-95
2022/12/14 06:48:04;;;;;;;15.35;3.97;;;-4.20;99.90;;;;;;4997024;28;20031;-95
2022/12/14 06:50:31;;;;;;;10.00;3.55;;;-3.90;99.90;;;;;;4997939;28;20026;-95
2022/12/14 06:52:57;;;;;;;9.30;2.97;;;-3.80;99.90;;;;;;5001690;28;20093;-95
2022/12/14 06:55:24;;;;;;;12.05;3.15;;;-3.50;99.90;;;;;;4999011;28;20072;-95
2022/12/14 06:57:51;;;;;;;7.28;2.78;;;-3.40;99.90;;;;;;5015720;28;20014;-94
2022/12/14 07:00:18;;;;;;;12.55;2.92;;;-3.20;99.90;;;;;;5009873;28;20031;-96
2022/12/14 07:02:44;;;;;;;8.63;2.70;;;-3.00;99.90;;;;;;5009228;28;20018;-92
2022/12/14 07:05:16;;;;;;;14.57;3.10;;;-2.90;99.90;;;;;;5016763;28;20045;-92
2022/12/14 07:07:42;;;;;;;6.93;2.80;;;-2.70;99.90;;;;;;4994928;28;20023;-91
2022/12/14 07:10:09;;;;;;;10.07;3.47;;;-2.50;99.90;;;;;;5010192;28;20106;-95
2022/12/14 07:12:38;;;;;;;7.65;2.80;;;-2.40;99.90;;;;;;5012090;28;20113;-92
2022/12/14 07:15:04;;;;;;;10.38;2.78;;;-2.30;99.90;;;;;;5006640;28;20104;-95
2022/12/14 07:17:30;;;;;;;9.57;2.75;;;-2.20;99.90;;;;;;4998927;28;20026;-89
2022/12/14 07:19:55;;;;;;;8.13;2.85;;;-2.10;99.90;;;;;;5005341;28;20042;-90
2022/12/14 07:22:21;;;;;;;9.45;2.10;;;-2.00;99.90;;;;;;5007281;28;20039;-86
2022/12/14 07:24:47;;;;;;;12.45;1.92;;;-1.90;99.90;;;;;;5003849;28;20030;-94
2022/12/14 07:27:12;;;;;;;10.05;2.33;;;-1.90;99.90;;;;;;5005685;28;20415;-94
2022/12/14 07:29:38;;;;;;;9.20;2.53;;;-1.80;99.90;;;;;;5002282;28;20031;-94
2022/12/14 07:32:04;;;;;;;9.25;2.38;;;-1.80;99.90;;;;;;5007143;28;20018;-92
2022/12/14 07:34:29;;;;;;;11.10;2.53;;;-1.80;99.90;;;;;;5004184;28;20034;-93
2022/12/14 07:36:55;;;;;;;7.57;2.22;;;-1.80;99.90;;;;;;4995895;28;20066;-95
2022/12/14 07:39:21;;;;;;;8.55;2.53;;;-1.80;99.90;;;;;;5002878;28;20097;-91
2022/12/14 07:41:53;;;;;;;10.75;2.55;;;-1.80;99.90;;;;;;5005766;28;20022;-96
2022/12/14 07:44:28;;;;;;;12.85;2.38;;;-1.80;99.90;;;;;;5011343;28;20062;-95
2022/12/14 07:47:09;;;;;;;4.72;1.73;;;-1.80;99.90;;;;;;4995372;28;20027;-95
2022/12/14 07:49:34;;;;;;;7.63;1.80;;;-1.70;99.90;;;;;;4992324;28;20030;-94
2022/12/14 07:52:00;;;;;;;5.85;1.55;;;-1.70;99.90;;;;;;5007017;28;20046;-95
2022/12/14 07:54:28;;;;;;;6.07;1.95;;;-1.70;99.90;;;;;;5012172;28;20432;-94
2022/12/14 07:56:55;;;;;;;8.70;2.08;;;-1.70;99.90;;;;;;5012777;28;20046;-93
2022/12/14 07:59:20;;;;;;;8.90;2.00;;;-1.60;99.90;;;;;;5005282;28;20480;-95
2022/12/14 08:01:50;;;;;;;6.70;1.60;;;-1.60;99.90;;;;;;5009175;28;20042;-95
2022/12/14 08:04:18;;;;;;;8.10;1.50;;;-1.50;99.90;;;;;;5018784;28;20041;-95
2022/12/14 08:06:45;;;;;;;8.38;2.00;;;-1.50;99.90;;;;;;5013387;28;20030;-96
2022/12/14 08:09:12;;;;;;;3.95;1.30;;;-1.50;99.90;;;;;;5005992;28;20034;-96
2022/12/14 08:11:41;;;;;;;8.43;1.77;;;-1.40;99.90;;;;;;5013152;28;20105;-95
2022/12/14 08:14:12;;;;;;;17.40;2.22;;;-1.40;99.90;;;;;;4986453;28;20046;-93
2022/12/14 08:16:39;;;;;;;6.38;1.65;;;-1.30;99.90;;;;;;4974991;28;20043;-95
2022/12/14 08:19:08;;;;;;;5.18;1.45;;;-1.20;99.90;;;;;;4994508;28;20027;-96
2022/12/14 08:21:34;;;;;;;7.18;1.13;;;-1.20;99.90;;;;;;4993540;28;20094;-89
2022/12/14 08:24:01;;;;;;;3.78;1.50;;;-1.10;99.90;;;;;;5015648;23;20037;-88
2022/12/14 08:26:27;;;;;;;7.53;1.50;;;-1.10;99.90;;;;;;5034848;28;20025;-88
2022/12/14 08:28:54;;;;;;;7.43;1.33;;;-1.10;99.90;;;;;;5041066;28;20041;-93
2022/12/14 08:31:22;;;;;;;9.00;1.50;;;-1.00;99.90;;;;;;5041521;28;20025;-96
2022/12/14 08:33:48;;;;;;;8.38;1.92;;;-1.00;99.90;;;;;;5031916;28;20088;-95
2022/12/14 08:36:20;;;;;;;9.38;1.58;;;-1.00;99.90;;;;;;5022810;28;20040;-89
2022/12/14 08:38:54;;;;;;;11.10;1.65;;;-1.00;99.90;;;;;;5020798;28;20082;-92
2022/12/14 08:41:21;;;;;;;5.53;1.40;;;-1.00;99.90;;;;;;5005199;28;20045;-92
2022/12/14 08:43:49;;;;;;;4.88;0.95;;;-0.90;99.90;;;;;;5005590;28;20010;-90
2022/12/14 08:46:15;;;;;;;2.90;1.23;;;-0.90;99.90;;;;;;5014798;28;20031;-95
2022/12/14 08:48:43;;;;;;;3.78;0.82;;;-0.90;99.90;;;;;;5018753;28;20021;-96
2022/12/14 08:51:10;;;;;;;3.08;1.15;;;-0.80;99.90;;;;;;5028122;28;20041;-95
2022/12/14 08:53:39;;;;;;;1.45;0.68;;;-0.80;99.90;;;;;;5016954;28;20072;-94
2022/12/14 08:56:07;;;;;;;4.07;1.08;;;-0.80;99.90;;;;;;5011011;28;20095;-95
2022/12/14 08:58:33;;;;;;;9.57;1.20;;;-0.80;99.90;;;;;;5008242;28;20033;-95
2022/12/14 09:01:31;;;;;;;9.00;0.98;;;-0.80;99.90;;;;;;5013900;28;20722;-96
2022/12/14 09:04:01;;;;;;;7.55;1.10;;;-0.70;99.90;;;;;;5009355;28;20551;-95
2022/12/14 09:06:32;;;;;;;7.47;1.17;;;-0.70;99.90;;;;;;5013018;28;20022;-95
2022/12/14 09:08:58;;;;;;;9.23;1.38;;;-0.70;99.90;;;;;;5014095;28;20033;-95
2022/12/14 09:11:23;;;;;;;4.95;1.38;;;-0.70;99.90;;;;;;5012805;28;20046;-95
2022/12/14 09:13:53;;;;;;;9.25;1.00;;;-0.60;99.90;;;;;;5014063;28;20026;-96
2022/12/14 09:16:20;;;;;;;9.85;1.38;;;-0.60;99.90;;;;;;5015348;28;20038;-95
2022/12/14 09:18:47;;;;;;;4.18;1.27;;;-0.60;99.90;;;;;;5015786;28;20015;-96
2022/12/14 09:21:14;;;;;;;7.55;1.15;;;-0.60;99.90;;;;;;5015448;28;20026;-93
2022/12/14 09:23:40;;;;;;;4.30;0.80;;;-0.50;99.90;;;;;;5012429;28;20030;-95
2022/12/14 09:26:15;;;;;;;1.55;0.70;;;-0.50;99.90;;;;;;5005637;28;20049;-95
2022/12/14 09:28:44;;;;;;;4.78;0.95;;;-0.40;99.90;;;;;;5006462;28;20080;-95
2022/12/14 09:31:13;;;;;;;4.00;1.05;;;-0.30;99.90;;;;;;4998089;28;20042;-94
2022/12/14 09:33:42;;;;;;;4.03;0.98;;;-0.20;99.90;;;;;;5002229;28;20026;-93
2022/12/14 09:36:14;;;;;;;12.15;0.55;;;-0.20;99.90;;;;;;5005183;28;20026;-95
2022/12/14 09:38:42;;;;;;;2.05;0.90;;;-0.20;99.90;;;;;;5004797;28;20081;-94
2022/12/14 09:41:46;;;;;;;6.32;1.15;;;-0.10;99.90;;;;;;5005204;28;20091;-95
2022/12/14 09:44:26;;;;;;;1.50;1.00;;;-0.10;99.90;;;;;;5008063;28;20125;-95
2022/12/14 09:46:52;;;;;;;;;;;0.00;99.90;;;;;;5013289;28;20056;-96
2022/12/14 09:49:32;;;;;;;1.92;0.60;;;0.10;99.90;;;;;;5015649;28;19906;-96
2022/12/14 09:52:02;;;;;;;3.22;0.90;;;0.20;99.90;;;;;;5018875;28;20030;-96
2022/12/14 09:54:35;;;;;;;2.15;0.20;;;0.40;99.90;;;;;;5019286;28;20038;-95
2022/12/14 09:57:25;;;;;;;4.63;0.98;;;0.70;99.90;;;;;;5020586;28;20112;-94
2022/12/14 09:59:54;;;;;;;2.33;0.93;;;0.90;99.90;;;;;;5018576;28;20034;-94
2022/12/14 10:02:23;;;;;;;4.45;0.98;;;1.10;99.90;;;;;;5021150;28;20041;-94
2022/12/14 10:05:32;;;;;;;5.50;0.80;;;1.30;99.90;;;;;;5035248;28;20030;-94
2022/12/14 10:08:22;;;;;;;4.25;0.90;;;1.50;99.90;;;;;;5024890;28;20042;-95
2022/12/14 10:11:27;;;;;;;5.77;0.90;;;1.70;99.90;;;;;;5026273;28;20018;-94
2022/12/14 10:14:00;;;;;;;4.65;1.30;;;2.00;99.90;;;;;;5006786;28;20054;-94
2022/12/14 10:16:26;;;;;;;6.38;0.93;;;2.20;99.90;;;;;;5031097;28;20061;-94
2022/12/14 10:19:11;;;;;;;3.75;1.17;;;2.40;99.90;;;;;;5026232;28;20056;-94
2022/12/14 10:21:48;;;;;;;7.07;1.02;;;2.60;99.90;;;;;;5027357;28;20040;-95
2022/12/14 10:24:19;;;;;;;7.88;1.30;;;2.70;99.90;;;;;;5020505;28;20057;-94
2022/12/14 10:26:54;;;;;;;5.30;1.63;;;2.90;99.90;;;;;;5021875;28;20022;-95
2022/12/14 10:29:36;;;;;;;8.18;1.10;;;3.00;99.90;;;;;;5018096;28;20440;-94
2022/12/14 10:32:28;;;;;;;9.10;1.25;;;3.20;99.90;;;;;;5018092;28;20112;-95
2022/12/14 10:34:57;;;;;;;7.07;1.90;;;3.50;99.90;;;;;;5021565;28;20030;-95
2022/12/14 10:37:33;;;;;;;4.90;1.35;;;3.70;99.90;;;;;;5010034;28;20049;-94
2022/12/14 10:40:08;;;;;;;6.80;1.33;;;3.80;99.90;;;;;;5021451;28;20033;-95
2022/12/14 10:42:56;;;;;;;5.18;1.27;;;4.00;99.90;;;;;;5024295;28;20022;-95
2022/12/14 10:45:47;;;;;;;9.82;1.42;;;4.10;99.90;;;;;;5022838;28;20026;-95
2022/12/14 10:48:28;;;;;;;8.13;1.33;;;4.20;99.90;;;;;;5020487;28;20029;-94
2022/12/14 10:51:13;;;;;;;;;;;4.30;99.90;;;;;;5021963;28;20033;-94
2022/12/14 10:54:16;;;;;;;4.72;1.13;;;4.50;99.90;;;;;;5023548;28;19906;-96
2022/12/14 10:56:42;;;;;;;3.58;1.20;;;4.60;99.90;;;;;;5012876;28;20042;-95
2022/12/14 10:59:24;;;;;;;6.18;1.10;;;4.60;99.90;;;;;;5023887;28;20030;-95
2022/12/14 11:02:12;;;;;;;9.95;1.52;;;4.60;99.50;;;;;;5019028;28;20034;-95
2022/12/14 11:04:43;;;;;;;5.82;1.00;;;4.80;99.20;;;;;;5018906;28;20022;-94
2022/12/14 11:07:12;;;;;;;16.52;2.28;;;4.90;98.80;;;;;;5020571;28;20018;-95
2022/12/14 11:09:39;;;;;;;6.22;1.33;;;5.00;98.10;;;;;;5002444;28;20423;-95
2022/12/14 11:12:14;;;;;;;8.95;1.27;;;5.20;97.50;;;;;;5002995;28;20042;-95
2022/12/14 11:14:58;;;;;;;5.32;1.40;;;5.30;96.70;;;;;;5022088;28;20102;-95
2022/12/14 11:17:37;;;;;;;3.72;1.00;;;5.50;95.70;;;;;;5026978;28;20022;-95
2022/12/14 11:20:11;;;;;;;8.02;1.42;;;5.60;95.00;;;;;;5027042;28;20093;-95
2022/12/14 11:23:20;;;;;;;3.42;1.20;;;5.70;94.40;;;;;;5022519;28;20036;-95
2022/12/14 11:25:50;;;;;;;5.60;1.00;;;5.80;93.90;;;;;;5026912;28;20124;-96
2022/12/14 11:28:39;;;;;;;10.18;1.70;;;5.90;93.30;;;;;;5025811;28;20034;-96
2022/12/14 11:31:12;;;;;;;6.85;1.20;;;6.00;92.70;;;;;;5023560;28;20038;-96
2022/12/14 11:33:47;;;;;;;10.15;1.30;;;6.10;92.60;;;;;;5028464;28;20022;-95
2022/12/14 11:36:37;;;;;;;5.32;1.10;;;6.30;91.80;;;;;;5028219;28;20025;-95
2022/12/14 11:39:27;;;;;;;5.03;1.00;;;6.40;91.00;;;;;;5029280;28;20030;-96
2022/12/14 11:42:03;;;;;;;12.57;8.25;;;6.50;90.80;;;;;;5003181;28;20406;-96
2022/12/14 11:44:50;;;;;;;7.13;1.23;;;6.70;90.00;;;;;;5019106;28;20060;-95
2022/12/14 11:47:28;;;;;;;6.85;1.88;;;6.70;89.30;;;;;;5025365;28;20038;-96
2022/12/14 11:49:56;;;;;;;12.10;1.65;;;6.90;88.50;;;;;;5028844;28;20053;-95
2022/12/14 11:52:43;;;;;;;7.40;1.25;;;6.90;87.50;;;;;;5028068;28;20097;-96
2022/12/14 11:55:38;;;;;;;4.55;1.23;;;7.00;87.00;;;;;;5031779;28;20033;-96
2022/12/14 11:58:16;;;;;;;6.15;1.35;;;7.20;86.60;;;;;;5033324;28;20038;-96
2022/12/14 12:00:55;;;;;;;5.22;1.25;;;7.40;85.60;;;;;;5019385;28;20309;-95
2022/12/14 12:03:34;;;;;;;3.67;1.05;;;7.40;84.90;;;;;;5034383;28;20049;-95
2022/12/14 12:06:10;;;;;;;6.97;1.50;;;7.50;83.90;;;;;;5034206;28;20061;-95
2022/12/14 12:08:41;;;;;;;15.75;3.22;;;7.80;83.60;;;;;;5032578;28;20057;-95
2022/12/14 12:11:23;;;;;;;6.28;1.10;;;7.90;82.80;;;;;;5020377;28;20018;-95
2022/12/14 12:14:16;;;;;;;10.90;1.50;;;8.10;82.30;;;;;;5014238;28;20026;-95
2022/12/14 12:16:44;;;;;;;8.02;1.80;;;8.30;81.40;;;;;;5008129;28;20106;-95
2022/12/14 12:19:26;;;;;;;8.00;1.50;;;8.60;80.90;;;;;;4998952;28;20031;-96
2022/12/14 12:21:59;;;;;;;7.07;1.48;;;8.70;79.90;;;;;;5012487;28;20531;-95
2022/12/14 12:24:31;;;;;;;6.65;1.50;;;8.80;79.30;;;;;;5014199;28;20038;-93
2022/12/14 12:27:12;;;;;;;6.25;2.45;;;8.70;77.90;;;;;;5010316;28;20014;-95
2022/12/14 12:30:20;;;;;;;5.93;1.27;;;8.60;77.40;;;;;;4990013;28;20021;-94
2022/12/14 12:33:05;;;;;;;9.23;1.85;;;8.70;77.10;;;;;;5009449;28;20049;-95
2022/12/14 12:35:47;;;;;;;19.40;1.63;;;8.80;76.70;;;;;;5018862;28;20064;-95
2022/12/14 12:38:50;;;;;;;10.18;1.75;;;8.90;75.90;;;;;;5019000;28;20022;-94
2022/12/14 12:41:33;;;;;;;7.97;1.85;;;9.00;75.40;;;;;;5049600;28;20019;-94
2022/12/14 12:44:23;;;;;;;4.45;1.50;;;9.10;75.40;;;;;;5014219;28;20092;-95
2022/12/14 12:47:25;;;;;;;10.20;1.98;;;9.30;75.20;;;;;;5019153;28;20015;-94
2022/12/14 12:50:07;;;;;;;16.00;3.00;;;9.40;74.70;;;;;;4990505;28;20078;-95
2022/12/14 12:52:51;;;;;;;9.75;2.40;;;9.60;73.70;;;;;;4975963;28;20031;-95
2022/12/14 12:55:19;;;;;;;7.22;1.90;;;9.90;73.40;;;;;;4990069;28;20184;-96
2022/12/14 12:58:03;;;;;;;5.93;1.58;;;10.20;72.90;;;;;;4959651;28;20042;-96
2022/12/14 13:00:30;;;;;;;9.63;2.40;;;10.40;72.00;;;;;;4956503;28;20035;-93
2022/12/14 13:03:17;;;;;;;7.63;1.70;;;10.60;71.70;;;;;;4958621;28;20015;-95
2022/12/14 13:05:47;;;;;;;4.30;1.55;;;10.70;69.80;;;;;;4942025;28;20069;-96
2022/12/14 13:08:31;;;;;;;7.07;1.70;;;10.60;69.30;;;;;;4955455;29;20027;-95
2022/12/14 13:11:05;;;;;;;4.70;1.50;;;10.70;69.60;;;;;;4966178;29;20039;-96
2022/12/14 13:13:36;;;;;;;6.50;1.73;;;11.10;70.00;;;;;;4948936;29;20133;-95
2022/12/14 13:16:28;;;;;;;6.65;2.10;;;11.60;69.60;;;;;;4949060;28;20063;-96
2022/12/14 13:19:17;;;;;;;10.68;1.95;;;12.20;68.80;;;;;;4961197;28;20027;-95
2022/12/14 13:21:53;;;;;;;8.00;2.00;;;12.50;67.80;;;;;;4961868;28;20071;-93
2022/12/14 13:24:43;;;;;;;8.43;2.30;;;12.90;66.40;;;;;;4961834;28;20035;-94
2022/12/14 13:30:55;;;;;;;8.25;2.33;;;13.30;64.70;;;;;;5016111;28;20074;-96
2022/12/14 13:34:00;;;;;;;6.30;1.75;;;13.50;64.00;;;;;;5011802;28;20042;-95